sensor_id;sensor_type;location;lat;lon;timestamp;pressure;altitude;pressure_sealevel;temperature;humidity
3780;BME280;1905;52.482;9.802;2023-11-19T00:00:16;100451.84;;;7.09;97.39
3780;BME280;1905;52.482;9.802;2023-11-19T00:02:44;100453.53;;;7.12;96.70
3780;BME280;1905;52.482;9.802;2023-11-19T00:05:12;100435.94;;;7.14;98.46
3780;BME280;1905;52.482;9.802;2023-11-19T00:07:42;100423.72;;;7.13;98.62
3780;BME280;1905;52.482;9.802;2023-11-19T00:10:10;100426.41;;;7.11;97.21
3780;BME280;1905;52.482;9.802;2023-11-19T00:12:39;100408.75;;;7.15;96.36
3780;BME280;1905;52.482;9.802;2023-11-19T00:15:08;100413.97;;;7.16;97.17
3780;BME280;1905;52.482;9.802;2023-11-19T00:17:38;100414.84;;;7.17;97.71
3780;BME280;1905;52.482;9.802;2023-11-19T00:20:09;100408.63;;;7.19;96.97
3780;BME280;1905;52.482;9.802;2023-11-19T00:22:37;100390.28;;;7.18;96.02
3780;BME280;1905;52.482;9.802;2023-11-19T00:25:16;100380.63;;;7.18;96.09
3780;BME280;1905;52.482;9.802;2023-11-19T00:27:44;100385.72;;;7.23;97.59
3780;BME280;1905;52.482;9.802;2023-11-19T00:30:13;100383.09;;;7.23;96.54
3780;BME280;1905;52.482;9.802;2023-11-19T00:32:41;100381.34;;;7.24;96.68
3780;BME280;1905;52.482;9.802;2023-11-19T00:35:09;100381.31;;;7.25;96.80
3780;BME280;1905;52.482;9.802;2023-11-19T00:37:37;100372.47;;;7.26;95.72
3780;BME280;1905;52.482;9.802;2023-11-19T00:40:07;100368.97;;;7.27;96.08
3780;BME280;1905;52.482;9.802;2023-11-19T00:42:38;100354.78;;;7.31;96.76
3780;BME280;1905;52.482;9.802;2023-11-19T00:45:07;100349.53;;;7.31;96.76
3780;BME280;1905;52.482;9.802;2023-11-19T00:47:38;100339.00;;;7.33;97.72
3780;BME280;1905;52.482;9.802;2023-11-19T00:50:07;100347.06;;;7.28;97.21
3780;BME280;1905;52.482;9.802;2023-11-19T00:52:36;100335.50;;;7.32;97.19
3780;BME280;1905;52.482;9.802;2023-11-19T00:55:05;100331.03;;;7.34;97.83
3780;BME280;1905;52.482;9.802;2023-11-19T00:57:34;100326.63;;;7.36;97.78
3780;BME280;1905;52.482;9.802;2023-11-19T01:00:05;100321.47;;;7.33;97.71
3780;BME280;1905;52.482;9.802;2023-11-19T01:02:46;100330.16;;;7.35;98.57
3780;BME280;1905;52.482;9.802;2023-11-19T01:05:16;100317.88;;;7.36;98.15
3780;BME280;1905;52.482;9.802;2023-11-19T01:07:48;100308.09;;;7.39;98.38
3780;BME280;1905;52.482;9.802;2023-11-19T01:10:16;100300.09;;;7.42;98.35
3780;BME280;1905;52.482;9.802;2023-11-19T01:12:45;100298.41;;;7.41;98.63
3780;BME280;1905;52.482;9.802;2023-11-19T01:15:14;100284.34;;;7.42;98.47
3780;BME280;1905;52.482;9.802;2023-11-19T01:17:45;100291.22;;;7.46;97.67
3780;BME280;1905;52.482;9.802;2023-11-19T01:20:16;100286.84;;;7.45;98.18
3780;BME280;1905;52.482;9.802;2023-11-19T01:22:43;100282.53;;;7.44;98.71
3780;BME280;1905;52.482;9.802;2023-11-19T01:25:11;100277.16;;;7.47;98.19
3780;BME280;1905;52.482;9.802;2023-11-19T01:27:39;100275.25;;;7.51;98.80
3780;BME280;1905;52.482;9.802;2023-11-19T01:30:08;100278.75;;;7.51;98.54
3780;BME280;1905;52.482;9.802;2023-11-19T01:32:41;100258.53;;;7.53;98.11
3780;BME280;1905;52.482;9.802;2023-11-19T01:35:09;100262.88;;;7.54;98.19
3780;BME280;1905;52.482;9.802;2023-11-19T01:37:39;100254.88;;;7.57;99.12
3780;BME280;1905;52.482;9.802;2023-11-19T01:40:08;100249.63;;;7.57;98.30
3780;BME280;1905;52.482;9.802;2023-11-19T01:42:38;100243.44;;;7.58;99.30
3780;BME280;1905;52.482;9.802;2023-11-19T01:45:07;100236.38;;;7.60;98.98
3780;BME280;1905;52.482;9.802;2023-11-19T01:47:36;100241.50;;;7.63;99.14
3780;BME280;1905;52.482;9.802;2023-11-19T01:50:06;100234.53;;;7.62;100.00
3780;BME280;1905;52.482;9.802;2023-11-19T01:52:35;100232.69;;;7.64;98.76
3780;BME280;1905;52.482;9.802;2023-11-19T01:55:06;100228.19;;;7.68;99.02
3780;BME280;1905;52.482;9.802;2023-11-19T01:57:36;100213.28;;;7.68;99.32
3780;BME280;1905;52.482;9.802;2023-11-19T02:00:09;100211.44;;;7.70;100.00
3780;BME280;1905;52.482;9.802;2023-11-19T02:02:39;100213.03;;;7.74;100.00
3780;BME280;1905;52.482;9.802;2023-11-19T02:05:09;100207.78;;;7.74;100.00
3780;BME280;1905;52.482;9.802;2023-11-19T02:07:36;100209.47;;;7.75;99.45
3780;BME280;1905;52.482;9.802;2023-11-19T02:10:05;100198.84;;;7.78;99.73
3780;BME280;1905;52.482;9.802;2023-11-19T02:12:40;100193.50;;;7.80;99.41
3780;BME280;1905;52.482;9.802;2023-11-19T02:15:10;100200.44;;;7.83;100.00
3780;BME280;1905;52.482;9.802;2023-11-19T02:17:38;100189.78;;;7.86;100.00
3780;BME280;1905;52.482;9.802;2023-11-19T02:20:06;100180.88;;;7.90;100.00
3780;BME280;1905;52.482;9.802;2023-11-19T02:22:37;100194.69;;;7.95;99.70
3780;BME280;1905;52.482;9.802;2023-11-19T02:25:07;100180.63;;;7.96;100.00
3780;BME280;1905;52.482;9.802;2023-11-19T02:27:53;100181.41;;;7.98;100.00
3780;BME280;1905;52.482;9.802;2023-11-19T02:30:23;100176.81;;;8.03;100.00
3780;BME280;1905;52.482;9.802;2023-11-19T02:32:53;100166.28;;;8.03;100.00
3780;BME280;1905;52.482;9.802;2023-11-19T02:35:24;100164.31;;;8.08;100.00
3780;BME280;1905;52.482;9.802;2023-11-19T02:37:52;100153.81;;;8.08;100.00
3780;BME280;1905;52.482;9.802;2023-11-19T02:40:21;100153.03;;;8.06;99.91
3780;BME280;1905;52.482;9.802;2023-11-19T02:42:52;100155.41;;;8.12;100.00
3780;BME280;1905;52.482;9.802;2023-11-19T02:45:22;100149.16;;;8.14;100.00
3780;BME280;1905;52.482;9.802;2023-11-19T02:47:50;100142.97;;;8.15;100.00
3780;BME280;1905;52.482;9.802;2023-11-19T02:50:19;100134.94;;;8.18;100.00
3780;BME280;1905;52.482;9.802;2023-11-19T02:52:52;100128.69;;;8.21;100.00
3780;BME280;1905;52.482;9.802;2023-11-19T02:55:22;100121.63;;;8.23;100.00
3780;BME280;1905;52.482;9.802;2023-11-19T02:57:51;100130.28;;;8.25;100.00
3780;BME280;1905;52.482;9.802;2023-11-19T03:00:21;100118.69;;;8.30;100.00
3780;BME280;1905;52.482;9.802;2023-11-19T03:02:54;100112.56;;;8.30;100.00
3780;BME280;1905;52.482;9.802;2023-11-19T03:05:27;100104.63;;;8.31;100.00
3780;BME280;1905;52.482;9.802;2023-11-19T03:07:57;100108.88;;;8.34;100.00
3780;BME280;1905;52.482;9.802;2023-11-19T03:10:25;100101.78;;;8.36;100.00
3780;BME280;1905;52.482;9.802;2023-11-19T03:12:54;100095.56;;;8.37;100.00
3780;BME280;1905;52.482;9.802;2023-11-19T03:15:23;100087.41;;;8.43;100.00
3780;BME280;1905;52.482;9.802;2023-11-19T03:17:51;100076.75;;;8.46;100.00
3780;BME280;1905;52.482;9.802;2023-11-19T03:20:19;100078.34;;;8.50;100.00
3780;BME280;1905;52.482;9.802;2023-11-19T03:22:47;100089.56;;;8.54;100.00
3780;BME280;1905;52.482;9.802;2023-11-19T03:25:15;100090.41;;;8.54;100.00
3780;BME280;1905;52.482;9.802;2023-11-19T03:27:42;100088.44;;;8.59;100.00
3780;BME280;1905;52.482;9.802;2023-11-19T03:30:12;100081.19;;;8.64;100.00
3780;BME280;1905;52.482;9.802;2023-11-19T03:32:39;100084.63;;;8.66;100.00
3780;BME280;1905;52.482;9.802;2023-11-19T03:35:07;100077.50;;;8.68;100.00
3780;BME280;1905;52.482;9.802;2023-11-19T03:37:36;100076.72;;;8.66;100.00
3780;BME280;1905;52.482;9.802;2023-11-19T03:40:05;100079.91;;;8.73;100.00
3780;BME280;1905;52.482;9.802;2023-11-19T03:42:33;100066.69;;;8.74;100.00
3780;BME280;1905;52.482;9.802;2023-11-19T03:45:01;100068.13;;;8.81;100.00
3780;BME280;1905;52.482;9.802;2023-11-19T03:47:31;100067.34;;;8.79;100.00
3780;BME280;1905;52.482;9.802;2023-11-19T03:49:59;100069.81;;;8.82;100.00
3780;BME280;1905;52.482;9.802;2023-11-19T03:52:27;100074.97;;;8.85;100.00
3780;BME280;1905;52.482;9.802;2023-11-19T03:54:55;100065.13;;;8.89;100.00
3780;BME280;1905;52.482;9.802;2023-11-19T03:57:23;100057.03;;;8.93;100.00
3780;BME280;1905;52.482;9.802;2023-11-19T03:59:51;100055.31;;;8.92;100.00
3780;BME280;1905;52.482;9.802;2023-11-19T04:02:19;100051.66;;;8.95;100.00
3780;BME280;1905;52.482;9.802;2023-11-19T04:04:48;100056.06;;;8.94;100.00
3780;BME280;1905;52.482;9.802;2023-11-19T04:07:16;100040.13;;;8.97;100.00
3780;BME280;1905;52.482;9.802;2023-11-19T04:09:44;100042.41;;;9.05;100.00
3780;BME280;1905;52.482;9.802;2023-11-19T04:12:13;100051.00;;;9.09;100.00
3780;BME280;1905;52.482;9.802;2023-11-19T04:14:41;100045.59;;;9.12;100.00
3780;BME280;1905;52.482;9.802;2023-11-19T04:17:08;100055.09;;;9.16;100.00
3780;BME280;1905;52.482;9.802;2023-11-19T04:19:36;100052.28;;;9.19;100.00
3780;BME280;1905;52.482;9.802;2023-11-19T04:22:09;100048.72;;;9.20;100.00
3780;BME280;1905;52.482;9.802;2023-11-19T04:24:37;100055.72;;;9.21;100.00
3780;BME280;1905;52.482;9.802;2023-11-19T04:27:05;100049.34;;;9.25;100.00
3780;BME280;1905;52.482;9.802;2023-11-19T04:29:33;100060.66;;;9.27;100.00
3780;BME280;1905;52.482;9.802;2023-11-19T04:32:00;100059.44;;;9.34;100.00
3780;BME280;1905;52.482;9.802;2023-11-19T04:34:28;100059.38;;;9.35;100.00
3780;BME280;1905;52.482;9.802;2023-11-19T04:36:56;100063.78;;;9.35;100.00
3780;BME280;1905;52.482;9.802;2023-11-19T04:39:25;100053.94;;;9.38;100.00
3780;BME280;1905;52.482;9.802;2023-11-19T04:41:53;100050.94;;;9.46;100.00
3780;BME280;1905;52.482;9.802;2023-11-19T04:44:21;100063.34;;;9.44;100.00
3780;BME280;1905;52.482;9.802;2023-11-19T04:46:48;100050.94;;;9.46;100.00
3780;BME280;1905;52.482;9.802;2023-11-19T04:49:16;100050.63;;;9.52;100.00
3780;BME280;1905;52.482;9.802;2023-11-19T04:51:45;100050.63;;;9.52;100.00
3780;BME280;1905;52.482;9.802;2023-11-19T04:54:14;100064.75;;;9.51;100.00
3780;BME280;1905;52.482;9.802;2023-11-19T04:56:46;100056.78;;;9.52;100.00
3780;BME280;1905;52.482;9.802;2023-11-19T04:59:14;100055.47;;;9.61;100.00
3780;BME280;1905;52.482;9.802;2023-11-19T05:01:46;100050.19;;;9.61;100.00
3780;BME280;1905;52.482;9.802;2023-11-19T05:04:14;100047.31;;;9.66;100.00
3780;BME280;1905;52.482;9.802;2023-11-19T05:06:42;100046.44;;;9.65;100.00
3780;BME280;1905;52.482;9.802;2023-11-19T05:09:10;100041.19;;;9.65;100.00
3780;BME280;1905;52.482;9.802;2023-11-19T05:11:39;100023.38;;;9.70;100.00
3780;BME280;1905;52.482;9.802;2023-11-19T05:14:12;100031.34;;;9.69;100.00
3780;BME280;1905;52.482;9.802;2023-11-19T05:16:39;100024.91;;;9.74;100.00
3780;BME280;1905;52.482;9.802;2023-11-19T05:19:07;100016.84;;;9.77;100.00
3780;BME280;1905;52.482;9.802;2023-11-19T05:21:35;100017.63;;;9.79;100.00
3780;BME280;1905;52.482;9.802;2023-11-19T05:24:04;100014.06;;;9.80;100.00
3780;BME280;1905;52.482;9.802;2023-11-19T05:26:32;100009.69;;;9.79;100.00
3780;BME280;1905;52.482;9.802;2023-11-19T05:28:59;100009.47;;;9.84;100.00
3780;BME280;1905;52.482;9.802;2023-11-19T05:31:30;100013.75;;;9.86;100.00
3780;BME280;1905;52.482;9.802;2023-11-19T05:34:03;100002.41;;;9.84;100.00
3780;BME280;1905;52.482;9.802;2023-11-19T05:36:31;100014.56;;;9.87;100.00
3780;BME280;1905;52.482;9.802;2023-11-19T05:38:59;100017.91;;;9.90;100.00
3780;BME280;1905;52.482;9.802;2023-11-19T05:41:27;100022.28;;;9.91;100.00
3780;BME280;1905;52.482;9.802;2023-11-19T05:43:54;100018.69;;;9.92;100.00
3780;BME280;1905;52.482;9.802;2023-11-19T05:46:22;100015.88;;;9.95;100.00
3780;BME280;1905;52.482;9.802;2023-11-19T05:48:53;100006.09;;;9.97;100.00
3780;BME280;1905;52.482;9.802;2023-11-19T05:51:21;100003.56;;;9.96;100.00
3780;BME280;1905;52.482;9.802;2023-11-19T05:53:50;100008.38;;;10.05;100.00
3780;BME280;1905;52.482;9.802;2023-11-19T05:56:18;100008.28;;;10.06;100.00
3780;BME280;1905;52.482;9.802;2023-11-19T05:58:48;100000.06;;;10.12;100.00
3780;BME280;1905;52.482;9.802;2023-11-19T06:01:16;100000.06;;;10.12;100.00
3780;BME280;1905;52.482;9.802;2023-11-19T06:03:44;100009.63;;;10.15;100.00
3780;BME280;1905;52.482;9.802;2023-11-19T06:06:18;100003.31;;;10.18;100.00
3780;BME280;1905;52.482;9.802;2023-11-19T06:08:45;100006.56;;;10.23;100.00
3780;BME280;1905;52.482;9.802;2023-11-19T06:11:14;99999.41;;;10.25;100.00
3780;BME280;1905;52.482;9.802;2023-11-19T06:13:45;100001.88;;;10.28;100.00
3780;BME280;1905;52.482;9.802;2023-11-19T06:16:14;100008.13;;;10.27;100.00
3780;BME280;1905;52.482;9.802;2023-11-19T06:18:42;100005.94;;;10.35;100.00
3780;BME280;1905;52.482;9.802;2023-11-19T06:21:10;100014.13;;;10.46;100.00
3780;BME280;1905;52.482;9.802;2023-11-19T06:23:40;100009.28;;;10.54;100.00
3780;BME280;1905;52.482;9.802;2023-11-19T06:26:07;100015.16;;;10.59;100.00
3780;BME280;1905;52.482;9.802;2023-11-19T06:28:35;100020.59;;;10.56;100.00
3780;BME280;1905;52.482;9.802;2023-11-19T06:31:04;100025.72;;;10.59;100.00
3780;BME280;1905;52.482;9.802;2023-11-19T06:33:32;100019.25;;;10.64;100.00
3780;BME280;1905;52.482;9.802;2023-11-19T06:36:00;100019.00;;;10.69;100.00
3780;BME280;1905;52.482;9.802;2023-11-19T06:38:28;100012.78;;;10.70;100.00
3780;BME280;1905;52.482;9.802;2023-11-19T06:40:57;100019.59;;;10.74;100.00
3780;BME280;1905;52.482;9.802;2023-11-19T06:43:24;100028.09;;;10.79;100.00
3780;BME280;1905;52.482;9.802;2023-11-19T06:45:53;100023.63;;;10.81;100.00
3780;BME280;1905;52.482;9.802;2023-11-19T06:48:21;100029.66;;;10.83;100.00
3780;BME280;1905;52.482;9.802;2023-11-19T06:50:48;100032.13;;;10.86;100.00
3780;BME280;1905;52.482;9.802;2023-11-19T06:53:17;100041.41;;;10.93;100.00
3780;BME280;1905;52.482;9.802;2023-11-19T06:55:45;100038.00;;;10.91;100.00
3780;BME280;1905;52.482;9.802;2023-11-19T06:58:14;100051.13;;;10.93;100.00
3780;BME280;1905;52.482;9.802;2023-11-19T07:00:44;100041.25;;;10.96;100.00
3780;BME280;1905;52.482;9.802;2023-11-19T07:03:13;100055.22;;;10.98;100.00
3780;BME280;1905;52.482;9.802;2023-11-19T07:05:42;100051.66;;;10.99;100.00
3780;BME280;1905;52.482;9.802;2023-11-19T07:08:10;100050.44;;;11.05;100.00
3780;BME280;1905;52.482;9.802;2023-11-19T07:10:38;100047.53;;;11.09;100.00
3780;BME280;1905;52.482;9.802;2023-11-19T07:13:06;100053.84;;;11.07;100.00
3780;BME280;1905;52.482;9.802;2023-11-19T07:15:35;100042.25;;;11.09;100.00
3780;BME280;1905;52.482;9.802;2023-11-19T07:18:02;100051.97;;;11.09;100.00
3780;BME280;1905;52.482;9.802;2023-11-19T07:20:30;100056.06;;;11.14;100.00
3780;BME280;1905;52.482;9.802;2023-11-19T07:22:59;100049.09;;;11.13;100.00
3780;BME280;1905;52.482;9.802;2023-11-19T07:25:27;100052.31;;;11.18;100.00
3780;BME280;1905;52.482;9.802;2023-11-19T07:27:55;100059.31;;;11.19;100.00
3780;BME280;1905;52.482;9.802;2023-11-19T07:30:22;100060.09;;;11.21;100.00
3780;BME280;1905;52.482;9.802;2023-11-19T07:32:52;100065.28;;;11.23;100.00
3780;BME280;1905;52.482;9.802;2023-11-19T07:35:20;100064.19;;;11.27;100.00
3780;BME280;1905;52.482;9.802;2023-11-19T07:37:48;100063.16;;;11.29;100.00
3780;BME280;1905;52.482;9.802;2023-11-19T07:40:17;100065.78;;;11.29;100.00
3780;BME280;1905;52.482;9.802;2023-11-19T07:42:45;100068.25;;;11.32;100.00
3780;BME280;1905;52.482;9.802;2023-11-19T07:45:13;100069.19;;;11.31;100.00
3780;BME280;1905;52.482;9.802;2023-11-19T07:47:41;100081.56;;;11.31;100.00
3780;BME280;1905;52.482;9.802;2023-11-19T07:50:13;100077.88;;;11.33;100.00
3780;BME280;1905;52.482;9.802;2023-11-19T07:52:43;100075.84;;;11.39;100.00
3780;BME280;1905;52.482;9.802;2023-11-19T07:55:11;100082.81;;;11.40;100.00
3780;BME280;1905;52.482;9.802;2023-11-19T07:57:38;100077.19;;;11.46;100.00
3780;BME280;1905;52.482;9.802;2023-11-19T08:00:07;100084.00;;;11.50;100.00
3780;BME280;1905;52.482;9.802;2023-11-19T08:02:39;100088.53;;;11.48;100.00
3780;BME280;1905;52.482;9.802;2023-11-19T08:05:07;100082.31;;;11.49;100.00
3780;BME280;1905;52.482;9.802;2023-11-19T08:07:36;100086.47;;;11.53;100.00
3780;BME280;1905;52.482;9.802;2023-11-19T08:10:05;100087.25;;;11.55;100.00
3780;BME280;1905;52.482;9.802;2023-11-19T08:12:36;100088.94;;;11.56;100.00
3780;BME280;1905;52.482;9.802;2023-11-19T08:15:04;100080.09;;;11.57;100.00
3780;BME280;1905;52.482;9.802;2023-11-19T08:17:33;100081.78;;;11.58;100.00
3780;BME280;1905;52.482;9.802;2023-11-19T08:20:01;100092.97;;;11.63;100.00
3780;BME280;1905;52.482;9.802;2023-11-19T08:22:30;100084.34;;;11.59;100.00
3780;BME280;1905;52.482;9.802;2023-11-19T08:24:59;100099.00;;;11.65;100.00
3780;BME280;1905;52.482;9.802;2023-11-19T08:27:26;100087.84;;;11.60;100.00
3780;BME280;1905;52.482;9.802;2023-11-19T08:29:54;100088.59;;;11.62;100.00
3780;BME280;1905;52.482;9.802;2023-11-19T08:32:23;100100.91;;;11.63;100.00
3780;BME280;1905;52.482;9.802;2023-11-19T08:34:51;100086.72;;;11.64;100.00
3780;BME280;1905;52.482;9.802;2023-11-19T08:37:18;100088.59;;;11.62;100.00
3780;BME280;1905;52.482;9.802;2023-11-19T08:39:47;100094.75;;;11.62;100.00
3780;BME280;1905;52.482;9.802;2023-11-19T08:42:16;100095.44;;;11.66;100.00
3780;BME280;1905;52.482;9.802;2023-11-19T08:44:49;100090.22;;;11.64;100.00
3780;BME280;1905;52.482;9.802;2023-11-19T08:47:17;100090.31;;;11.63;100.00
3780;BME280;1905;52.482;9.802;2023-11-19T08:49:45;100088.44;;;11.65;100.00
3780;BME280;1905;52.482;9.802;2023-11-19T08:52:29;100091.84;;;11.67;100.00
3780;BME280;1905;52.482;9.802;2023-11-19T08:55:01;100086.53;;;11.67;100.00
3780;BME280;1905;52.482;9.802;2023-11-19T08:57:30;100094.41;;;11.68;100.00
3780;BME280;1905;52.482;9.802;2023-11-19T08:59:57;100095.25;;;11.69;100.00
3780;BME280;1905;52.482;9.802;2023-11-19T09:02:25;100101.25;;;11.72;100.00
3780;BME280;1905;52.482;9.802;2023-11-19T09:04:53;100097.75;;;11.72;100.00
3780;BME280;1905;52.482;9.802;2023-11-19T09:07:20;100105.69;;;11.72;100.00
3780;BME280;1905;52.482;9.802;2023-11-19T09:09:48;100114.56;;;11.71;100.00
3780;BME280;1905;52.482;9.802;2023-11-19T09:12:16;100113.78;;;11.69;100.00
3780;BME280;1905;52.482;9.802;2023-11-19T09:14:45;100126.94;;;11.70;100.00
3780;BME280;1905;52.482;9.802;2023-11-19T09:17:13;100124.28;;;11.70;100.00
3780;BME280;1905;52.482;9.802;2023-11-19T09:19:40;100123.44;;;11.70;100.00
3780;BME280;1905;52.482;9.802;2023-11-19T09:22:08;100135.56;;;11.74;100.00
3780;BME280;1905;52.482;9.802;2023-11-19T09:24:36;100130.06;;;11.77;100.00
3780;BME280;1905;52.482;9.802;2023-11-19T09:27:04;100142.53;;;11.75;100.00
3780;BME280;1905;52.482;9.802;2023-11-19T09:29:32;100139.53;;;11.81;100.00
3780;BME280;1905;52.482;9.802;2023-11-19T09:32:01;100148.06;;;11.86;99.71
3780;BME280;1905;52.482;9.802;2023-11-19T09:34:31;100142.78;;;11.86;99.78
3780;BME280;1905;52.482;9.802;2023-11-19T09:36:59;100132.94;;;11.88;100.00
3780;BME280;1905;52.482;9.802;2023-11-19T09:39:27;100148.66;;;11.91;99.69
3780;BME280;1905;52.482;9.802;2023-11-19T09:41:55;100150.25;;;11.93;100.00
3780;BME280;1905;52.482;9.802;2023-11-19T09:44:24;100143.69;;;12.01;99.58
3780;BME280;1905;52.482;9.802;2023-11-19T09:46:54;100149.06;;;11.99;99.39
3780;BME280;1905;52.482;9.802;2023-11-19T09:49:25;100140.78;;;12.05;99.65
3780;BME280;1905;52.482;9.802;2023-11-19T09:51:57;100140.41;;;12.11;98.84
3780;BME280;1905;52.482;9.802;2023-11-19T09:54:25;100137.03;;;12.09;99.69
3780;BME280;1905;52.482;9.802;2023-11-19T09:56:52;100139.28;;;12.15;99.02
3780;BME280;1905;52.482;9.802;2023-11-19T09:59:21;100136.47;;;12.18;98.90
3780;BME280;1905;52.482;9.802;2023-11-19T10:01:49;100149.22;;;12.26;98.51
3780;BME280;1905;52.482;9.802;2023-11-19T10:04:17;100146.34;;;12.30;98.23
3780;BME280;1905;52.482;9.802;2023-11-19T10:06:47;100139.16;;;12.32;98.19
3780;BME280;1905;52.482;9.802;2023-11-19T10:09:15;100142.53;;;12.34;97.76
3780;BME280;1905;52.482;9.802;2023-11-19T10:11:43;100137.06;;;12.37;97.91
3780;BME280;1905;52.482;9.802;2023-11-19T10:14:11;100140.47;;;12.39;97.22
3780;BME280;1905;52.482;9.802;2023-11-19T10:16:40;100143.91;;;12.41;97.33
3780;BME280;1905;52.482;9.802;2023-11-19T10:19:12;100143.91;;;12.41;97.00
3780;BME280;1905;52.482;9.802;2023-11-19T10:21:47;100136.88;;;12.40;97.29
3780;BME280;1905;52.482;9.802;2023-11-19T10:24:15;100148.81;;;12.47;96.36
3780;BME280;1905;52.482;9.802;2023-11-19T10:26:45;100144.47;;;12.46;96.74
3780;BME280;1905;52.482;9.802;2023-11-19T10:29:13;100148.06;;;12.45;96.68
3780;BME280;1905;52.482;9.802;2023-11-19T10:31:55;100145.91;;;12.52;96.27
3780;BME280;1905;52.482;9.802;2023-11-19T10:34:27;100140.78;;;12.49;96.10
3780;BME280;1905;52.482;9.802;2023-11-19T10:36:57;100140.31;;;12.57;95.95
3780;BME280;1905;52.482;9.802;2023-11-19T10:39:50;100147.34;;;12.58;95.71
3780;BME280;1905;52.482;9.802;2023-11-19T10:42:20;100145.25;;;12.63;95.35
3780;BME280;1905;52.482;9.802;2023-11-19T10:44:47;100142.59;;;12.63;95.49
3780;BME280;1905;52.482;9.802;2023-11-19T10:47:15;100139.03;;;12.64;95.34
3780;BME280;1905;52.482;9.802;2023-11-19T10:49:44;100139.19;;;12.61;95.08
3780;BME280;1905;52.482;9.802;2023-11-19T10:52:17;100133.72;;;12.64;95.11
3780;BME280;1905;52.482;9.802;2023-11-19T10:54:49;100127.38;;;12.66;95.52
3780;BME280;1905;52.482;9.802;2023-11-19T10:57:20;100132.38;;;12.71;95.06
3780;BME280;1905;52.482;9.802;2023-11-19T10:59:50;100146.22;;;12.76;94.51
3780;BME280;1905;52.482;9.802;2023-11-19T11:02:21;100124.25;;;12.74;94.79
3780;BME280;1905;52.482;9.802;2023-11-19T11:04:52;100129.38;;;12.77;94.84
3780;BME280;1905;52.482;9.802;2023-11-19T11:07:22;100142.50;;;12.78;95.21
3780;BME280;1905;52.482;9.802;2023-11-19T11:10:02;100139.97;;;12.77;95.09
3780;BME280;1905;52.482;9.802;2023-11-19T11:12:35;100140.72;;;12.79;94.65
3780;BME280;1905;52.482;9.802;2023-11-19T11:15:05;100137.22;;;12.78;94.46
3780;BME280;1905;52.482;9.802;2023-11-19T11:17:33;100137.13;;;12.80;95.24
3780;BME280;1905;52.482;9.802;2023-11-19T11:20:02;100131.72;;;12.81;94.68
3780;BME280;1905;52.482;9.802;2023-11-19T11:22:38;100130.78;;;12.82;94.42
3780;BME280;1905;52.482;9.802;2023-11-19T11:25:23;100134.28;;;12.83;94.40
3780;BME280;1905;52.482;9.802;2023-11-19T11:28:09;100133.34;;;12.84;94.26
3780;BME280;1905;52.482;9.802;2023-11-19T11:30:53;100137.13;;;12.80;94.66
3780;BME280;1905;52.482;9.802;2023-11-19T11:33:32;100142.22;;;12.83;94.44
3780;BME280;1905;52.482;9.802;2023-11-19T11:36:13;100124.16;;;12.89;94.15
3780;BME280;1905;52.482;9.802;2023-11-19T11:38:48;100131.25;;;12.89;94.08
3780;BME280;1905;52.482;9.802;2023-11-19T11:41:18;100140.06;;;12.89;93.96
3780;BME280;1905;52.482;9.802;2023-11-19T11:43:53;100144.13;;;12.95;94.12
3780;BME280;1905;52.482;9.802;2023-11-19T11:46:54;100150.28;;;12.95;93.98
3780;BME280;1905;52.482;9.802;2023-11-19T11:49:26;100138.72;;;12.96;94.27
3780;BME280;1905;52.482;9.802;2023-11-19T11:52:00;100148.50;;;12.96;94.14
3780;BME280;1905;52.482;9.802;2023-11-19T11:54:34;100142.03;;;13.00;93.65
3780;BME280;1905;52.482;9.802;2023-11-19T11:57:09;100130.38;;;13.02;93.14
3780;BME280;1905;52.482;9.802;2023-11-19T11:59:45;100131.25;;;13.03;93.18
3780;BME280;1905;52.482;9.802;2023-11-19T12:02:15;100138.25;;;13.04;93.41
3780;BME280;1905;52.482;9.802;2023-11-19T12:04:47;100134.66;;;13.05;92.84
3780;BME280;1905;52.482;9.802;2023-11-19T12:07:17;100124.22;;;13.02;92.63
3780;BME280;1905;52.482;9.802;2023-11-19T12:09:52;100120.84;;;13.00;92.67
3780;BME280;1905;52.482;9.802;2023-11-19T12:12:22;100121.41;;;13.05;93.23
3780;BME280;1905;52.482;9.802;2023-11-19T12:15:02;100130.19;;;13.05;92.68
3780;BME280;1905;52.482;9.802;2023-11-19T12:17:37;100125.75;;;13.06;92.93
3780;BME280;1905;52.482;9.802;2023-11-19T12:20:07;100129.19;;;13.08;93.03
3780;BME280;1905;52.482;9.802;2023-11-19T12:22:36;100121.41;;;13.05;92.70
3780;BME280;1905;52.482;9.802;2023-11-19T12:25:07;100134.00;;;13.01;92.79
3780;BME280;1905;52.482;9.802;2023-11-19T12:27:36;100135.47;;;13.07;92.47
3780;BME280;1905;52.482;9.802;2023-11-19T12:30:05;100134.50;;;13.08;91.75
3780;BME280;1905;52.482;9.802;2023-11-19T12:32:40;100123.88;;;13.08;92.54
3780;BME280;1905;52.482;9.802;2023-11-19T12:35:09;100127.66;;;13.04;92.05
3780;BME280;1905;52.482;9.802;2023-11-19T12:37:42;100132.59;;;13.10;92.70
3780;BME280;1905;52.482;9.802;2023-11-19T12:40:16;100127.28;;;13.10;92.65
3780;BME280;1905;52.482;9.802;2023-11-19T12:42:45;100134.31;;;13.11;92.65
3780;BME280;1905;52.482;9.802;2023-11-19T12:45:13;100134.50;;;13.08;92.16
3780;BME280;1905;52.482;9.802;2023-11-19T12:47:43;100128.41;;;13.06;91.49
3780;BME280;1905;52.482;9.802;2023-11-19T12:50:14;100130.06;;;13.08;91.59
3780;BME280;1905;52.482;9.802;2023-11-19T12:52:42;100127.28;;;13.10;92.08
3780;BME280;1905;52.482;9.802;2023-11-19T12:55:26;100122.84;;;13.10;92.68
3780;BME280;1905;52.482;9.802;2023-11-19T12:57:56;100120.31;;;13.09;92.28
3780;BME280;1905;52.482;9.802;2023-11-19T13:00:26;100113.28;;;13.08;92.13
3780;BME280;1905;52.482;9.802;2023-11-19T13:02:56;100115.84;;;13.09;92.15
3780;BME280;1905;52.482;9.802;2023-11-19T13:05:28;100123.88;;;13.08;91.72
3780;BME280;1905;52.482;9.802;2023-11-19T13:07:59;100126.34;;;13.11;91.89
3780;BME280;1905;52.482;9.802;2023-11-19T13:10:29;100127.66;;;13.04;92.39
3780;BME280;1905;52.482;9.802;2023-11-19T13:13:04;100119.78;;;13.02;91.97
3780;BME280;1905;52.482;9.802;2023-11-19T13:15:33;100119.78;;;13.02;92.22
3780;BME280;1905;52.482;9.802;2023-11-19T13:18:01;100124.16;;;13.03;92.76
3780;BME280;1905;52.482;9.802;2023-11-19T13:20:30;100122.56;;;13.01;91.46
3780;BME280;1905;52.482;9.802;2023-11-19T13:22:59;100123.41;;;13.01;92.35